createdAt,value
2022-08-22T07:11:20.356Z,101531.44
2022-08-22T07:12:20.766Z,101529.46
2022-08-22T07:13:20.630Z,101529.22
2022-08-22T07:14:20.730Z,101529.22
2022-08-22T07:15:22.207Z,101528.98
2022-08-22T07:16:23.888Z,101528.73
2022-08-22T07:17:22.012Z,101528.59
2022-08-22T07:18:23.363Z,101527.69
2022-08-22T07:19:23.610Z,101527.22
2022-08-22T07:20:24.075Z,101526.66
2022-08-22T07:21:23.468Z,101525.80
2022-08-22T07:22:23.285Z,101525.50
2022-08-22T07:23:25.150Z,101524.95
2022-08-22T07:24:25.274Z,101524.70
2022-08-22T07:25:25.200Z,101524.69
2022-08-22T07:26:26.007Z,101524.55
2022-08-22T07:26:36.095Z,101516.15
2022-08-22T07:27:39.574Z,101515.44
2022-08-22T07:28:51.511Z,101515.45
2022-08-22T07:29:38.152Z,101515.66
2022-08-22T07:30:39.993Z,101515.73
2022-08-22T07:31:39.196Z,101515.88
2022-08-22T07:32:40.797Z,101515.88
2022-08-22T07:33:40.665Z,101515.77
2022-08-22T07:35:20.332Z,101508.44
2022-08-22T07:37:19.290Z,101504.17
2022-08-22T07:38:12.881Z,101510.89
2022-08-22T07:39:13.161Z,101510.71
2022-08-22T07:40:17.192Z,101509.94
2022-08-22T07:41:19.541Z,101509.52
2022-08-22T07:44:00.277Z,101505.59
2022-08-22T07:49:09.666Z,101509.55
2022-08-22T07:50:03.293Z,101506.62
2022-08-22T07:51:05.168Z,101506.34
2022-08-22T07:52:05.351Z,101506.34
2022-08-22T07:53:50.141Z,101505.62
2022-08-22T07:54:50.011Z,101507.22
2022-08-22T07:55:59.699Z,101506.66
2022-08-22T07:57:32.062Z,101511.08
2022-08-22T07:58:31.687Z,101509.45
2022-08-22T08:00:42.073Z,101512.49
2022-08-22T08:03:01.624Z,101515.22
2022-08-22T08:04:02.059Z,101508.48
2022-08-22T08:05:01.028Z,101508.36
2022-08-22T08:06:01.788Z,101508.78
2022-08-22T08:07:36.582Z,101517.16
2022-08-22T08:08:34.313Z,101501.83
2022-08-22T08:09:36.191Z,101502.11
2022-08-22T08:10:36.911Z,101502.89
2022-08-22T08:13:16.021Z,101517.55
2022-08-22T08:14:56.280Z,101516.95
2022-08-22T08:16:01.558Z,101504.86
2022-08-22T08:16:58.444Z,101505.31
2022-08-22T08:17:59.437Z,101505.67
2022-08-22T08:18:59.099Z,101505.44
2022-08-22T08:19:59.645Z,101505.79
2022-08-22T08:21:00.317Z,101505.97
2022-08-22T08:22:02.125Z,101506.56
2022-08-22T08:23:02.372Z,101507.02
2022-08-22T08:24:02.151Z,101506.92
2022-08-22T08:25:03.005Z,101507.02
2022-08-22T08:26:04.021Z,101507.64
2022-08-22T08:27:04.404Z,101507.78
2022-08-22T08:28:06.238Z,101508.02
2022-08-22T08:29:46.189Z,101516.63
2022-08-22T08:31:35.833Z,101512.24
2022-08-22T08:33:24.325Z,101514.45
2022-08-22T08:33:58.861Z,101515.09
2022-08-22T08:34:59.688Z,101514.22
2022-08-22T08:36:03.545Z,101514.38
2022-08-22T08:37:01.093Z,101514.28
2022-08-22T08:38:01.859Z,101514.44
2022-08-22T08:39:03.765Z,101514.72
2022-08-22T08:40:06.338Z,101514.42
2022-08-22T08:41:10.589Z,101514.61
2022-08-22T08:42:05.777Z,101514.33
2022-08-22T08:43:05.741Z,101514.89
2022-08-22T08:44:05.820Z,101514.92
2022-08-22T08:45:07.721Z,101513.83
2022-08-22T08:46:07.959Z,101513.48
2022-08-22T08:47:10.677Z,101513.01
2022-08-22T08:47:26.699Z,101505.89
2022-08-22T08:48:26.047Z,101504.25
2022-08-22T08:49:26.548Z,101504.33
2022-08-22T08:50:48.774Z,101502.67
2022-08-22T08:51:49.040Z,101495.30
2022-08-22T08:52:52.843Z,101495.27
2022-08-22T08:53:50.515Z,101494.91
2022-08-22T08:55:25.191Z,101495.77
2022-08-22T08:56:26.202Z,101488.92
2022-08-22T08:57:27.643Z,101488.69
2022-08-22T08:58:26.815Z,101488.61
2022-08-22T08:59:29.184Z,101488.95
2022-08-22T09:00:30.290Z,101489.09
2022-08-22T09:01:35.418Z,101489.02
2022-08-22T09:02:34.774Z,101489.05
2022-08-22T09:03:31.143Z,101488.77
2022-08-22T09:04:29.276Z,101488.20
2022-08-22T09:05:30.140Z,101487.33
2022-08-22T09:06:30.262Z,101487.19
2022-08-22T09:07:31.612Z,101486.56
2022-08-22T09:08:30.768Z,101486.00
2022-08-22T09:09:32.767Z,101485.38
2022-08-22T09:10:35.161Z,101484.36
2022-08-22T09:11:33.059Z,101483.60
2022-08-22T09:12:33.190Z,101482.98
2022-08-22T09:13:34.606Z,101482.18
2022-08-22T09:13:49.308Z,101471.78
2022-08-22T09:44:39.593Z,101464.45
2022-08-22T09:45:37.517Z,101461.72
2022-08-22T09:46:36.857Z,101459.92
2022-08-22T09:47:43.267Z,101458.02
2022-08-22T09:48:39.023Z,101456.50
2022-08-22T09:50:10.987Z,101431.11
2022-08-22T09:51:48.669Z,101423.55
2022-08-22T09:52:43.030Z,101427.47
2022-08-22T09:53:43.848Z,101426.71
2022-08-22T09:54:44.507Z,101426.64
2022-08-22T09:55:44.727Z,101426.78
2022-08-22T09:56:45.612Z,101426.81
2022-08-22T09:57:46.279Z,101426.59
2022-08-22T09:58:46.911Z,101426.38
2022-08-22T10:00:55.185Z,101420.95
2022-08-22T10:01:48.350Z,101419.33
2022-08-22T10:02:52.163Z,101418.81
2022-08-22T10:03:50.195Z,101418.53
2022-08-22T10:05:40.836Z,101420.84
2022-08-22T10:06:22.896Z,101410.37
2022-08-22T10:07:26.603Z,101410.73
2022-08-22T10:08:26.321Z,101410.66
2022-08-22T10:09:31.957Z,101410.98
2022-08-22T10:10:26.250Z,101410.69
2022-08-22T10:11:25.076Z,101410.73
2022-08-22T10:12:25.970Z,101410.81
2022-08-22T10:13:26.637Z,101410.46
2022-08-22T10:14:27.597Z,101410.31
2022-08-22T10:15:28.481Z,101409.70
2022-08-22T10:16:28.647Z,101409.41
2022-08-22T10:17:28.704Z,101409.08
2022-08-22T10:18:29.582Z,101408.02
2022-08-22T10:57:53.255Z,101359.63
2022-08-22T11:01:38.368Z,101364.88
2022-08-22T11:02:16.729Z,101364.30
2022-08-22T11:03:23.423Z,101363.82
2022-08-22T11:04:21.033Z,101363.52
2022-08-22T11:09:08.688Z,101357.00
2022-08-22T11:10:07.623Z,101352.95
2022-08-22T11:11:07.296Z,101352.77
2022-08-22T11:12:11.047Z,101352.72
2022-08-22T11:13:09.258Z,101352.61
2022-08-22T11:14:44.941Z,101350.77
2022-08-22T11:15:46.113Z,101356.33
2022-08-22T11:16:55.288Z,101355.91
2022-08-22T11:17:46.401Z,101355.77
2022-08-22T11:18:58.084Z,101355.34
2022-08-22T11:19:47.100Z,101354.48
2022-08-22T11:20:49.046Z,101354.00
2022-08-22T11:21:48.821Z,101353.59
2022-08-22T11:22:49.353Z,101352.45
2022-08-22T11:23:51.250Z,101351.33
2022-08-22T11:24:56.379Z,101351.05
2022-08-22T11:25:53.807Z,101349.48
2022-08-22T11:27:25.274Z,101335.78
2022-08-22T11:28:22.407Z,101338.10
2022-08-22T11:31:47.194Z,101323.49
2022-08-22T11:32:44.655Z,101320.70
2022-08-22T11:34:16.763Z,101320.89
2022-08-22T11:38:19.323Z,101318.36
2022-08-22T11:39:18.252Z,101313.60
2022-08-22T11:40:17.139Z,101313.44
2022-08-22T11:41:24.189Z,101313.73
2022-08-22T11:47:16.229Z,101303.85
2022-08-22T11:48:13.358Z,101305.72
2022-08-22T11:53:38.609Z,101313.97
2022-08-22T12:00:17.586Z,101307.67
2022-08-22T12:06:21.267Z,101303.14
2022-08-22T12:08:03.681Z,101304.92
2022-08-22T12:08:58.886Z,101297.35
2022-08-22T12:10:00.309Z,101297.23
2022-08-22T12:10:58.537Z,101297.30
2022-08-22T12:11:59.751Z,101296.96
2022-08-22T12:13:00.838Z,101296.48
2022-08-22T12:14:03.875Z,101296.73
2022-08-22T12:15:01.009Z,101296.59
2022-08-22T12:16:01.739Z,101296.70
2022-08-22T12:17:01.871Z,101296.61
2022-08-22T12:18:02.512Z,101296.12
2022-08-22T12:19:03.392Z,101296.23
2022-08-22T12:20:18.626Z,101296.44
2022-08-22T12:21:04.197Z,101297.13
2022-08-22T12:22:04.877Z,101297.47
2022-08-22T12:23:05.972Z,101298.11
2022-08-22T12:24:11.090Z,101298.36
2022-08-22T12:25:11.521Z,101300.86
2022-08-22T12:29:46.512Z,101298.05
2022-08-22T12:30:46.999Z,101298.05
2022-08-22T12:31:49.621Z,101297.77
2022-08-22T12:33:39.396Z,101293.03
2022-08-22T12:34:36.159Z,101289.09
2022-08-22T12:35:36.139Z,101289.04
2022-08-22T12:37:31.863Z,101278.94
2022-08-22T12:38:29.331Z,101279.77
2022-08-22T12:39:23.330Z,101279.70
2022-08-22T12:40:26.314Z,101279.12
2022-08-22T12:41:28.312Z,101279.41
2022-08-22T12:42:25.419Z,101278.63
2022-08-22T12:43:26.822Z,101278.44
2022-08-22T12:44:27.030Z,101278.28
2022-08-22T12:45:27.857Z,101277.89
2022-08-22T12:46:28.844Z,101277.41
2022-08-22T12:47:27.799Z,101276.91
2022-08-22T12:48:29.412Z,101276.63
2022-08-22T12:49:29.183Z,101276.34
2022-08-22T12:50:31.529Z,101275.56
2022-08-22T12:51:30.726Z,101275.17
2022-08-22T12:52:31.286Z,101274.89
2022-08-22T12:54:00.023Z,101274.84
2022-08-22T12:55:32.093Z,101269.27
2022-08-22T12:57:03.257Z,101265.80
2022-08-22T12:58:03.441Z,101271.37
2022-08-22T12:59:04.221Z,101270.67
2022-08-22T13:00:05.079Z,101270.19
2022-08-22T13:01:06.666Z,101269.62
2022-08-22T13:02:06.369Z,101269.27
2022-08-22T13:03:07.535Z,101268.88
2022-08-22T13:04:08.815Z,101268.05
2022-08-22T13:05:07.647Z,101267.53
2022-08-22T13:06:07.905Z,101267.12
2022-08-22T13:07:08.710Z,101266.99
2022-08-22T13:08:10.212Z,101266.09
2022-08-22T13:09:10.348Z,101265.52
2022-08-22T13:10:10.998Z,101264.98
2022-08-22T13:11:22.762Z,101264.69
2022-08-22T13:12:11.637Z,101263.75
2022-08-22T13:13:12.784Z,101263.52
2022-08-22T13:14:19.609Z,101263.08
2022-08-22T13:15:12.754Z,101262.08
2022-08-22T13:16:13.388Z,101261.32
2022-08-22T13:17:24.486Z,101260.53
2022-08-22T13:18:30.766Z,101259.53
2022-08-22T13:19:15.091Z,101258.28
2022-08-22T13:20:16.176Z,101257.36
2022-08-22T13:20:29.943Z,101237.20
2022-08-22T13:21:31.914Z,101240.35
2022-08-22T13:22:30.772Z,101240.20
2022-08-22T13:23:30.354Z,101240.11
2022-08-22T13:24:38.649Z,101239.87
2022-08-22T13:25:36.791Z,101240.32
2022-08-22T13:27:03.087Z,101245.66
2022-08-22T13:28:05.595Z,101242.41
2022-08-22T13:29:24.668Z,101242.02
2022-08-22T13:30:04.215Z,101242.12
2022-08-22T13:31:05.097Z,101241.89
2022-08-22T13:32:05.097Z,101241.61
2022-08-22T13:33:05.474Z,101241.38
2022-08-22T13:34:06.293Z,101241.19
2022-08-22T13:35:07.288Z,101240.63
2022-08-22T13:36:08.068Z,101239.94
2022-08-22T13:37:10.183Z,101239.28
2022-08-22T13:38:12.262Z,101239.34
2022-08-22T13:39:10.382Z,101238.77
2022-08-22T13:40:11.277Z,101238.55
2022-08-22T13:41:11.551Z,101238.03
2022-08-22T13:42:14.527Z,101237.52
2022-08-22T13:43:12.543Z,101236.78
2022-08-22T13:44:13.369Z,101236.16
2022-08-22T13:45:13.567Z,101235.67
2022-08-22T13:46:14.566Z,101235.27
2022-08-22T13:47:15.003Z,101234.83
2022-08-22T13:47:23.521Z,101228.28
2022-08-22T13:48:23.566Z,101233.39
2022-08-22T13:49:24.560Z,101233.05
2022-08-22T13:50:25.346Z,101232.53
2022-08-22T13:51:25.941Z,101231.98
2022-08-22T13:52:59.067Z,101228.43
2022-08-22T13:54:00.858Z,101224.81
2022-08-22T13:55:31.230Z,101224.25
2022-08-22T13:56:31.754Z,101223.45
2022-08-22T13:57:32.670Z,101223.27
2022-08-22T13:58:33.398Z,101222.69
2022-08-22T13:59:50.209Z,101222.97
2022-08-22T14:00:34.398Z,101222.87
2022-08-22T14:01:35.404Z,101222.63
2022-08-22T14:02:36.071Z,101222.21
2022-08-22T14:03:36.896Z,101222.39
2022-08-22T14:04:38.510Z,101222.28
2022-08-22T14:05:37.677Z,101221.48
2022-08-22T14:06:41.477Z,101221.11
2022-08-22T14:07:38.597Z,101221.19
2022-08-22T14:08:39.539Z,101220.95
2022-08-22T14:09:40.182Z,101220.66
2022-08-22T14:10:40.837Z,101220.59
2022-08-22T14:11:42.833Z,101220.19
2022-08-22T14:12:50.516Z,101219.91
2022-08-22T14:13:43.109Z,101219.39
2022-08-22T14:14:43.422Z,101218.77
2022-08-22T14:15:45.406Z,101218.05
2022-08-22T14:16:43.924Z,101217.41
2022-08-22T14:17:48.298Z,101217.06
2022-08-22T14:18:46.163Z,101216.02
2022-08-22T14:19:58.726Z,101215.42
2022-08-22T14:20:46.014Z,101214.62
2022-08-22T14:21:46.509Z,101213.56
2022-08-22T14:22:47.871Z,101212.87
2022-08-22T14:23:00.969Z,101204.83
2022-08-22T14:23:57.273Z,101209.91
2022-08-22T14:24:58.179Z,101209.39
2022-08-22T14:25:58.769Z,101208.93
2022-08-22T14:27:05.204Z,101208.41
2022-08-22T14:28:01.093Z,101208.34
2022-08-22T14:29:00.617Z,101207.58
2022-08-22T14:30:02.937Z,101206.95
2022-08-22T14:31:01.284Z,101207.29
2022-08-22T14:32:01.530Z,101207.03
2022-08-22T14:33:02.413Z,101207.27
2022-08-22T14:34:03.098Z,101207.15
2022-08-22T14:35:04.751Z,101206.92
2022-08-22T14:36:04.433Z,101206.81
2022-08-22T14:37:07.370Z,101206.69
2022-08-22T14:38:06.219Z,101207.23
2022-08-22T14:39:07.054Z,101207.11
2022-08-22T14:40:07.256Z,101206.17
2022-08-22T14:41:17.254Z,101206.36
2022-08-22T14:42:10.835Z,101205.89
2022-08-22T14:43:08.640Z,101205.30
2022-08-22T14:44:09.578Z,101204.87
2022-08-22T14:45:10.371Z,101204.22
2022-08-22T14:46:11.034Z,101203.88
2022-08-22T14:47:54.552Z,101203.19
2022-08-22T14:48:29.731Z,101203.13
2022-08-22T14:49:13.058Z,101202.36
2022-08-22T14:50:13.884Z,101201.73
2022-08-22T14:50:26.739Z,101198.59
2022-08-22T14:51:59.275Z,101189.90
2022-08-22T14:53:39.989Z,101192.35
2022-08-22T14:54:42.687Z,101185.52
2022-08-22T14:55:41.379Z,101185.70
2022-08-22T14:56:48.343Z,101185.45
2022-08-22T14:57:42.518Z,101185.15
2022-08-22T14:58:42.731Z,101185.29
2022-08-22T14:59:43.574Z,101185.05
2022-08-22T15:01:08.313Z,101184.81
2022-08-22T15:02:09.294Z,101184.69
2022-08-22T15:03:10.012Z,101183.94
2022-08-22T15:04:10.537Z,101184.05
2022-08-22T15:05:11.924Z,101183.38
2022-08-22T15:06:11.185Z,101183.18
2022-08-22T15:07:12.005Z,101182.89
2022-08-22T15:07:20.655Z,101187.22
2022-08-22T15:08:20.847Z,101183.17
2022-08-22T15:09:21.735Z,101183.17
2022-08-22T15:10:22.096Z,101182.89
2022-08-22T15:11:23.602Z,101182.48
2022-08-22T15:12:22.770Z,101182.05
2022-08-22T15:13:25.182Z,101182.08
2022-08-22T15:14:23.946Z,101182.31
2022-08-22T15:15:24.775Z,101181.86
2022-08-22T15:16:25.032Z,101182.02
2022-08-22T15:17:27.246Z,101181.27
2022-08-22T15:18:26.991Z,101181.20
2022-08-22T15:19:27.268Z,101180.98
2022-08-22T15:20:28.176Z,101181.14
2022-08-22T15:21:27.298Z,101180.80
2022-08-22T15:22:28.212Z,101180.62
2022-08-22T15:23:29.022Z,101180.44
2022-08-22T15:23:45.246Z,101180.08
2022-08-22T15:25:26.541Z,101178.45
2022-08-22T15:26:41.043Z,101178.14
2022-08-22T15:27:41.331Z,101177.92
2022-08-22T15:28:53.107Z,101177.39
2022-08-22T15:29:41.558Z,101177.00
2022-08-22T15:30:44.337Z,101176.47
2022-08-22T15:31:46.638Z,101175.95
2022-08-22T15:32:43.445Z,101175.59
2022-08-22T15:33:45.466Z,101175.23
2022-08-22T15:34:44.032Z,101174.95
2022-08-22T15:35:45.631Z,101174.41
2022-08-22T15:36:45.387Z,101173.74
2022-08-22T15:37:47.246Z,101173.28
2022-08-22T15:38:48.167Z,101172.58
2022-08-22T15:39:47.178Z,101172.05
2022-08-22T15:40:47.257Z,101171.94
2022-08-22T15:41:48.694Z,101171.34
2022-08-22T15:42:48.179Z,101170.82
2022-08-22T15:43:49.190Z,101169.95
2022-08-22T15:44:50.074Z,101169.15
2022-08-22T15:45:49.462Z,101168.80
2022-08-22T15:46:50.293Z,101168.10
2022-08-22T15:47:52.761Z,101167.34
2022-08-22T15:48:52.470Z,101166.58
2022-08-22T15:49:50.627Z,101166.02
2022-08-22T15:51:24.955Z,101154.66
2022-08-22T15:52:25.968Z,101152.23
2022-08-22T15:53:26.606Z,101152.52
2022-08-22T15:54:27.328Z,101152.63
2022-08-22T15:55:27.403Z,101153.08
2022-08-22T15:56:28.535Z,101153.22
2022-08-22T15:57:29.587Z,101153.78
2022-08-22T15:58:28.842Z,101153.20
2022-08-22T15:59:29.690Z,101153.81
2022-08-22T16:00:30.157Z,101154.23
2022-08-22T16:01:30.685Z,101154.28
2022-08-22T16:02:31.534Z,101154.75
2022-08-22T16:03:32.505Z,101154.59
2022-08-22T16:04:33.028Z,101154.28
2022-08-22T16:05:32.419Z,101154.92
2022-08-22T16:06:32.892Z,101155.11
2022-08-22T16:07:33.042Z,101155.34
2022-08-22T16:08:33.926Z,101155.11
2022-08-22T16:09:34.980Z,101154.88
2022-08-22T16:10:34.927Z,101154.69
2022-08-22T16:11:35.084Z,101154.64
2022-08-22T16:12:36.906Z,101154.17
2022-08-22T16:12:59.843Z,101162.65
2022-08-22T16:14:00.483Z,101153.83
2022-08-22T16:15:00.804Z,101153.49
2022-08-22T16:16:01.799Z,101153.67
2022-08-22T16:17:02.595Z,101153.85
2022-08-22T16:18:03.778Z,101153.62
2022-08-22T16:19:02.939Z,101153.91
2022-08-22T16:20:04.371Z,101154.36
2022-08-22T16:21:04.529Z,101154.55
2022-08-22T16:22:04.827Z,101154.61
2022-08-22T16:23:04.943Z,101155.19
2022-08-22T16:24:05.773Z,101155.00
2022-08-22T16:25:06.459Z,101155.16
2022-08-22T16:26:05.957Z,101155.49
2022-08-22T16:27:06.997Z,101155.31
2022-08-22T16:27:15.625Z,101155.22
2022-08-22T16:28:16.081Z,101156.36
2022-08-22T16:29:18.263Z,101156.41
2022-08-22T16:30:16.899Z,101156.41
2022-08-22T16:31:18.108Z,101156.23
2022-08-22T16:32:18.022Z,101156.23
2022-08-22T16:33:18.726Z,101156.11
2022-08-22T16:34:18.911Z,101156.84
2022-08-22T16:35:19.576Z,101157.38
2022-08-22T16:36:19.656Z,101157.31
2022-08-22T16:37:21.509Z,101157.59
2022-08-22T16:38:21.322Z,101157.81
2022-08-22T16:39:23.467Z,101157.69
2022-08-22T16:40:26.504Z,101157.73
2022-08-22T16:41:31.162Z,101157.33
2022-08-22T16:42:23.440Z,101157.36
2022-08-22T16:43:24.656Z,101157.66
2022-08-22T16:44:25.023Z,101158.04
2022-08-22T16:45:24.510Z,101157.84
2022-08-22T16:46:25.194Z,101157.89
2022-08-22T16:47:25.414Z,101157.89
2022-08-22T16:48:26.214Z,101157.83
2022-08-22T16:49:26.157Z,101157.67
2022-08-22T16:50:27.008Z,101157.68
2022-08-22T16:51:28.549Z,101157.77
2022-08-22T16:52:27.731Z,101157.70
2022-08-22T16:53:28.057Z,101157.75
2022-08-22T16:54:28.117Z,101157.73
2022-08-22T16:55:28.980Z,101157.92
2022-08-22T16:55:39.203Z,101167.77
2022-08-22T16:56:40.020Z,101167.32
2022-08-22T16:57:50.569Z,101166.31
2022-08-22T16:58:56.876Z,101166.08
2022-08-22T16:59:41.459Z,101166.25
2022-08-22T17:00:41.555Z,101165.91
2022-08-22T17:01:42.263Z,101165.63
2022-08-22T17:02:42.305Z,101165.86
2022-08-22T17:03:42.590Z,101165.69
2022-08-22T17:04:42.802Z,101165.52
2022-08-22T17:05:43.758Z,101165.63
2022-08-22T17:06:45.662Z,101165.86
2022-08-22T17:07:46.480Z,101165.73
2022-08-22T17:08:45.931Z,101166.00
2022-08-22T17:09:47.471Z,101165.97
2022-08-22T17:10:46.981Z,101166.42
2022-08-22T17:11:47.723Z,101166.34
2022-08-22T17:12:48.995Z,101166.31
2022-08-22T17:13:49.824Z,101166.17
2022-08-22T17:14:52.622Z,101166.63
2022-08-22T17:15:50.013Z,101166.34
2022-08-22T17:16:54.072Z,101166.80
2022-08-22T17:17:50.807Z,101167.04
2022-08-22T17:18:52.525Z,101166.97
2022-08-22T17:19:12.246Z,101168.52
2022-08-22T17:20:07.815Z,101167.23
2022-08-22T17:21:08.005Z,101167.34
2022-08-22T17:22:42.141Z,101169.03
2022-08-22T17:23:42.113Z,101174.08
2022-08-22T17:24:45.719Z,101173.91
2022-08-22T17:25:43.643Z,101173.14
2022-08-22T17:26:43.662Z,101173.22
2022-08-22T17:27:45.672Z,101172.69
2022-08-22T17:28:45.062Z,101172.66
2022-08-22T17:29:45.760Z,101172.14
2022-08-22T17:30:46.381Z,101171.55
2022-08-22T17:31:47.232Z,101171.20
2022-08-22T17:32:51.348Z,101170.84
2022-08-22T17:33:51.623Z,101170.84
2022-08-22T17:34:48.888Z,101170.57
2022-08-22T17:35:48.961Z,101170.67
2022-08-22T17:36:49.724Z,101170.95
2022-08-22T17:37:49.779Z,101170.81
2022-08-22T17:38:49.942Z,101170.98
2022-08-22T17:39:54.396Z,101171.29
2022-08-22T17:40:01.256Z,101173.80
2022-08-22T17:41:00.142Z,101175.25
2022-08-22T17:42:00.948Z,101175.21
2022-08-22T17:43:00.988Z,101175.38
2022-08-22T17:44:02.028Z,101174.97
2022-08-22T17:45:01.017Z,101174.97
2022-08-22T17:46:38.545Z,101181.47
2022-08-22T17:47:38.346Z,101180.64
2022-08-22T17:48:38.476Z,101180.39
2022-08-22T17:49:39.311Z,101179.42
2022-08-22T17:50:39.813Z,101179.42
2022-08-22T17:51:40.377Z,101178.63
2022-08-22T17:52:41.213Z,101178.20
2022-08-22T17:53:42.090Z,101178.06
2022-08-22T17:55:04.743Z,101181.78
2022-08-22T17:56:04.935Z,101174.95
2022-08-22T17:57:06.484Z,101174.77
2022-08-22T17:58:06.610Z,101174.95
2022-08-22T17:59:06.073Z,101175.13
2022-08-22T18:00:06.739Z,101175.23
2022-08-22T18:01:06.905Z,101175.36
2022-08-22T18:02:07.393Z,101175.22
2022-08-22T18:03:08.027Z,101175.63
2022-08-22T18:04:08.928Z,101175.77
2022-08-22T18:05:09.764Z,101176.63
2022-08-22T18:06:09.849Z,101176.91
2022-08-22T18:07:10.015Z,101177.01
2022-08-22T18:08:37.394Z,101177.28
2022-08-22T18:09:14.641Z,101177.59
2022-08-22T18:10:11.810Z,101177.86
2022-08-22T18:11:13.760Z,101177.78
2022-08-22T18:12:14.348Z,101178.41
2022-08-22T18:13:15.180Z,101178.50
2022-08-22T18:14:14.649Z,101178.77
2022-08-22T18:15:15.066Z,101178.28
2022-08-22T18:15:25.819Z,101187.95
2022-08-22T18:16:27.051Z,101178.36
2022-08-22T18:17:26.685Z,101178.28
2022-08-22T18:18:30.348Z,101178.63
2022-08-22T18:19:27.545Z,101178.73
2022-08-22T18:20:28.109Z,101178.63
2022-08-22T18:21:28.516Z,101179.35
2022-08-22T18:22:28.605Z,101179.59
2022-08-22T18:23:36.190Z,101179.73
2022-08-22T18:24:33.010Z,101179.72
2022-08-22T18:25:29.926Z,101180.06
2022-08-22T18:26:30.512Z,101180.06
2022-08-22T18:27:35.328Z,101180.78
2022-08-22T18:28:31.442Z,101180.36
2022-08-22T18:29:32.088Z,101181.05
2022-08-22T18:30:34.028Z,101181.21
2022-08-22T18:31:37.723Z,101181.66
2022-08-22T18:32:34.217Z,101182.30
2022-08-22T18:33:34.800Z,101182.92
2022-08-22T18:34:41.008Z,101183.36
2022-08-22T18:35:35.527Z,101183.63
2022-08-22T18:35:54.474Z,101198.44
2022-08-22T18:36:51.853Z,101207.06
2022-08-22T18:37:50.868Z,101206.48
2022-08-22T18:38:51.933Z,101206.30
2022-08-22T18:39:51.257Z,101205.92
2022-08-22T18:40:51.224Z,101205.85
2022-08-22T18:42:31.995Z,101201.67
2022-08-22T18:43:32.117Z,101205.60
2022-08-22T18:44:30.833Z,101204.77
2022-08-22T18:45:43.706Z,101204.25
2022-08-22T18:46:29.957Z,101203.59
2022-08-22T18:47:31.480Z,101203.41
2022-08-22T18:48:31.507Z,101203.16
2022-08-22T18:49:32.410Z,101202.67
2022-08-22T18:50:32.168Z,101202.17
2022-08-22T18:51:33.193Z,101201.92
2022-08-22T18:52:33.704Z,101201.78
2022-08-22T18:53:34.269Z,101202.39
2022-08-22T18:54:35.112Z,101202.63
2022-08-22T18:55:35.548Z,101202.58
2022-08-22T18:56:37.554Z,101202.73
2022-08-22T18:57:38.791Z,101202.83
2022-08-22T18:58:37.988Z,101202.92
2022-08-22T18:59:38.643Z,101203.29
2022-08-22T19:00:38.734Z,101203.37
2022-08-22T19:01:44.683Z,101203.81
2022-08-22T19:02:40.962Z,101204.45
2022-08-22T19:03:40.245Z,101204.79
2022-08-22T19:04:40.718Z,101205.30
2022-08-22T19:05:42.660Z,101205.77
2022-08-22T19:06:41.749Z,101205.92
2022-08-22T19:07:42.579Z,101206.64
2022-08-22T19:07:57.485Z,101222.05
2022-08-22T19:08:55.386Z,101214.09
2022-08-22T19:09:55.662Z,101214.15
2022-08-22T19:10:57.171Z,101214.25
2022-08-22T19:11:57.620Z,101214.80
2022-08-22T19:12:57.630Z,101214.80
2022-08-22T19:13:58.022Z,101215.38
2022-08-22T19:14:58.149Z,101215.81
2022-08-22T19:15:59.028Z,101216.25
2022-08-22T19:16:59.542Z,101216.52
2022-08-22T19:18:02.384Z,101216.72
2022-08-22T19:19:00.584Z,101217.63
2022-08-22T19:20:01.348Z,101218.52
2022-08-22T19:21:02.182Z,101218.84
2022-08-22T19:22:02.459Z,101219.28
2022-08-22T19:23:03.462Z,101219.66
2022-08-22T19:24:03.845Z,101220.67
2022-08-22T19:24:26.795Z,101235.12
2022-08-22T19:25:28.510Z,101234.62
2022-08-22T19:26:28.033Z,101234.20
2022-08-22T19:27:30.923Z,101234.55
2022-08-22T19:28:29.064Z,101234.33
2022-08-22T19:29:29.588Z,101234.44
2022-08-22T19:30:29.624Z,101233.95
2022-08-22T19:31:30.925Z,101234.08
2022-08-22T19:32:32.933Z,101234.19
2022-08-22T19:33:34.968Z,101234.59
2022-08-22T19:34:32.176Z,101234.89
2022-08-22T19:35:32.563Z,101235.05
2022-08-22T19:36:33.278Z,101235.39
2022-08-22T19:37:34.426Z,101235.77
2022-08-22T19:38:34.406Z,101236.10
2022-08-22T19:39:34.916Z,101236.34
2022-08-22T19:41:18.951Z,101247.34
2022-08-22T19:42:54.122Z,101252.38
2022-08-22T19:43:51.939Z,101240.00
2022-08-22T19:44:53.604Z,101240.13
2022-08-22T19:45:54.216Z,101240.75
2022-08-22T19:46:54.899Z,101240.74
2022-08-22T19:47:54.861Z,101241.63
2022-08-22T19:48:54.876Z,101241.80
2022-08-22T19:49:54.909Z,101242.82
2022-08-22T19:50:55.228Z,101243.08
2022-08-22T19:51:55.987Z,101244.04
2022-08-22T19:52:56.107Z,101244.58
2022-08-22T19:53:56.152Z,101244.66
2022-08-22T19:54:56.335Z,101245.42
2022-08-22T19:55:58.923Z,101245.61
2022-08-22T19:56:56.929Z,101245.84
2022-08-22T19:57:58.489Z,101246.13
2022-08-22T19:58:58.651Z,101245.68
2022-08-22T19:59:57.843Z,101246.14
2022-08-22T20:00:59.543Z,101245.93
2022-08-22T20:01:08.759Z,101251.16
2022-08-22T20:02:09.549Z,101250.64
2022-08-22T20:03:10.429Z,101250.30
2022-08-22T20:04:12.376Z,101249.95
2022-08-22T20:06:43.126Z,101247.70
2022-08-22T20:07:24.481Z,101248.02
2022-08-22T20:08:25.820Z,101247.77
2022-08-22T20:09:26.336Z,101247.94
2022-08-22T20:10:26.764Z,101248.05
2022-08-22T20:11:25.914Z,101248.31
2022-08-22T20:12:27.533Z,101248.97
2022-08-22T20:17:21.454Z,101258.53
2022-08-22T20:19:23.093Z,101259.09
2022-08-22T20:20:24.535Z,101258.61
2022-08-22T20:21:25.203Z,101259.05
2022-08-22T20:22:24.949Z,101258.66
2022-08-22T20:23:25.203Z,101258.42
2022-08-22T20:24:28.914Z,101258.69
2022-08-22T20:25:42.916Z,101258.66
2022-08-22T20:26:26.273Z,101258.16
2022-08-22T20:27:26.377Z,101258.39
2022-08-22T20:28:26.573Z,101259.04
2022-08-22T20:29:27.794Z,101258.91
2022-08-22T20:30:28.403Z,101259.00
2022-08-22T20:31:27.707Z,101259.27
2022-08-22T20:32:29.668Z,101259.34
2022-08-22T20:33:30.316Z,101260.05
2022-08-22T20:34:30.922Z,101260.03
2022-08-22T20:35:30.116Z,101260.39
2022-08-22T20:36:30.215Z,101260.36
2022-08-22T20:38:02.790Z,101260.13
2022-08-22T20:38:31.929Z,101260.69
2022-08-22T20:39:32.734Z,101260.95
2022-08-22T20:40:53.522Z,101264.61
2022-08-22T20:40:55.605Z,101260.58
2022-08-22T20:41:49.484Z,101262.14
2022-08-22T20:42:49.911Z,101262.20
2022-08-22T20:43:50.100Z,101262.47
2022-08-22T20:44:53.438Z,101262.53
2022-08-22T20:45:51.221Z,101262.45
2022-08-22T20:46:53.343Z,101262.21
2022-08-22T20:47:51.681Z,101262.81